createdAt,value
2022-12-12T00:01:13.011Z,5.28
2022-12-12T00:03:40.483Z,5.28
2022-12-12T00:06:07.754Z,5.27
2022-12-12T00:08:34.864Z,5.19
2022-12-12T00:11:02.045Z,5.00
2022-12-12T00:13:29.140Z,5.14
2022-12-12T00:15:56.315Z,5.17
2022-12-12T00:18:23.391Z,5.13
2022-12-12T00:20:55.875Z,5.08
2022-12-12T00:23:24.848Z,4.60
2022-12-12T00:25:57.794Z,5.00
2022-12-12T00:28:25.491Z,4.94
2022-12-12T00:30:53.181Z,4.93
2022-12-12T00:33:20.187Z,4.86
2022-12-12T00:35:51.348Z,4.83
2022-12-12T00:38:19.187Z,4.75
2022-12-12T00:40:47.447Z,4.72
2022-12-12T00:43:14.777Z,4.67
2022-12-12T00:45:41.995Z,4.68
2022-12-12T00:48:10.163Z,4.70
2022-12-12T00:50:38.002Z,4.68
2022-12-12T00:53:05.268Z,4.67
2022-12-12T00:55:32.507Z,4.70
2022-12-12T00:58:00.406Z,4.64
2022-12-12T01:00:27.496Z,4.80
2022-12-12T01:02:57.686Z,4.61
2022-12-12T01:05:25.594Z,4.69
2022-12-12T01:07:52.934Z,4.72
2022-12-12T01:10:20.113Z,4.68
2022-12-12T01:12:47.321Z,4.69
2022-12-12T01:15:15.016Z,4.67
2022-12-12T01:17:42.150Z,4.63
2022-12-12T01:20:17.043Z,4.60
2022-12-12T01:22:44.409Z,4.56
2022-12-12T01:25:15.893Z,4.45
2022-12-12T01:27:43.818Z,4.47
2022-12-12T01:30:13.888Z,4.48
2022-12-12T01:32:41.100Z,4.44
2022-12-12T01:35:08.589Z,4.58
2022-12-12T01:37:36.603Z,4.56
2022-12-12T01:40:06.222Z,4.47
2022-12-12T01:42:33.361Z,4.47
2022-12-12T01:45:01.503Z,4.47
2022-12-12T01:47:28.701Z,4.47
2022-12-12T01:50:06.167Z,4.43
2022-12-12T01:52:41.799Z,4.34
2022-12-12T01:55:15.616Z,4.47
2022-12-12T01:57:47.452Z,4.40
2022-12-12T02:00:15.656Z,4.37
2022-12-12T02:02:46.459Z,4.35
2022-12-12T02:05:42.527Z,4.50
2022-12-12T02:08:11.218Z,4.46
2022-12-12T02:10:38.808Z,4.42
2022-12-12T02:13:10.259Z,4.49
2022-12-12T02:15:44.831Z,4.36
2022-12-12T02:18:20.473Z,4.31
2022-12-12T02:21:04.609Z,4.31
2022-12-12T02:24:09.699Z,4.33
2022-12-12T02:26:51.638Z,4.29
2022-12-12T02:29:31.111Z,4.22
2022-12-12T02:32:19.835Z,4.21
2022-12-12T02:35:28.297Z,4.11
2022-12-12T02:38:07.331Z,4.11
2022-12-12T02:40:53.779Z,4.09
2022-12-12T02:43:57.992Z,4.06
2022-12-12T02:46:53.583Z,3.85
2022-12-12T02:49:37.050Z,4.07
2022-12-12T02:52:07.372Z,3.94
2022-12-12T02:54:35.040Z,4.04
2022-12-12T02:57:03.258Z,4.12
2022-12-12T02:59:34.579Z,4.15
2022-12-12T03:02:13.902Z,4.19
2022-12-12T03:05:09.375Z,4.12
2022-12-12T03:07:53.680Z,4.14
2022-12-12T03:10:29.900Z,4.13
2022-12-12T03:13:01.003Z,4.13
2022-12-12T03:15:39.088Z,4.02
2022-12-12T03:18:30.246Z,4.10
2022-12-12T03:21:15.048Z,4.06
2022-12-12T03:23:46.702Z,4.05
2022-12-12T03:26:24.923Z,4.04
2022-12-12T03:29:22.447Z,4.06
2022-12-12T03:31:56.217Z,4.06
2022-12-12T03:34:34.372Z,3.95
2022-12-12T03:37:24.457Z,4.01
2022-12-12T03:39:58.394Z,3.94
2022-12-12T03:42:40.568Z,4.01
2022-12-12T03:45:16.937Z,3.99
2022-12-12T03:48:23.899Z,4.02
2022-12-12T03:51:03.871Z,4.05
2022-12-12T03:53:33.416Z,4.02
2022-12-12T03:56:08.184Z,3.99
2022-12-12T03:58:41.255Z,3.92
2022-12-12T04:01:12.331Z,3.94
2022-12-12T04:04:09.628Z,4.01
2022-12-12T04:06:46.570Z,4.01
2022-12-12T04:09:37.063Z,4.00
2022-12-12T04:12:57.400Z,4.09
2022-12-12T04:15:52.007Z,4.13
2022-12-12T04:18:33.245Z,4.16
2022-12-12T04:21:21.621Z,4.10
2022-12-12T04:24:02.250Z,4.13
2022-12-12T04:26:44.639Z,4.11
2022-12-12T04:29:35.169Z,4.22
2022-12-12T04:32:11.089Z,4.28
2022-12-12T04:34:53.953Z,4.35
2022-12-12T04:37:47.372Z,4.48
2022-12-12T04:40:23.581Z,4.51
2022-12-12T04:43:00.921Z,4.44
2022-12-12T04:45:34.850Z,4.43
2022-12-12T04:48:05.453Z,4.50
2022-12-12T04:50:34.761Z,4.59
2022-12-12T04:53:07.785Z,4.63
2022-12-12T04:55:38.772Z,4.62
2022-12-12T04:58:07.456Z,4.54
2022-12-12T05:00:54.340Z,4.62
2022-12-12T05:03:47.294Z,4.59
2022-12-12T05:06:18.484Z,4.57
2022-12-12T05:08:47.706Z,4.55
2022-12-12T05:11:16.087Z,4.53
2022-12-12T05:13:43.808Z,4.53
2022-12-12T05:16:21.263Z,4.58
2022-12-12T05:18:48.953Z,4.58
2022-12-12T05:21:16.790Z,4.63
2022-12-12T05:23:44.141Z,4.66
2022-12-12T05:26:19.663Z,4.63
2022-12-12T05:28:46.754Z,4.65
2022-12-12T05:31:14.165Z,4.75
2022-12-12T05:33:42.125Z,4.73
2022-12-12T05:36:09.241Z,4.76
2022-12-12T05:38:39.377Z,4.74
2022-12-12T05:41:09.636Z,4.73
2022-12-12T05:43:37.490Z,4.18
2022-12-12T05:46:06.924Z,4.73
2022-12-12T05:48:35.084Z,4.74
2022-12-12T05:51:06.082Z,4.86
2022-12-12T05:53:41.986Z,4.84
2022-12-12T05:56:13.046Z,4.82
2022-12-12T05:58:44.379Z,4.69
2022-12-12T06:01:11.676Z,4.68
2022-12-12T06:03:39.502Z,4.66
2022-12-12T06:06:06.799Z,4.56
2022-12-12T06:08:34.782Z,4.58
2022-12-12T06:11:05.826Z,4.55
2022-12-12T06:13:32.971Z,4.56
2022-12-12T06:16:00.433Z,4.53
2022-12-12T06:18:29.501Z,4.52
2022-12-12T06:21:11.174Z,4.52
2022-12-12T06:23:41.050Z,4.54
2022-12-12T06:26:11.757Z,3.97
2022-12-12T06:28:39.891Z,4.49
2022-12-12T06:31:11.535Z,4.50
2022-12-12T06:33:39.486Z,4.50
2022-12-12T06:36:26.060Z,4.54
2022-12-12T06:39:00.204Z,4.63
2022-12-12T06:41:31.001Z,4.59
2022-12-12T06:43:58.646Z,4.83
2022-12-12T06:46:28.631Z,4.87
2022-12-12T06:48:57.065Z,4.85
2022-12-12T06:51:32.451Z,5.11
2022-12-12T06:54:01.922Z,5.11
2022-12-12T06:56:29.278Z,5.12
2022-12-12T06:58:59.493Z,5.13
2022-12-12T07:01:27.050Z,5.09
2022-12-12T07:03:54.614Z,5.00
2022-12-12T07:06:23.736Z,5.20
2022-12-12T07:08:52.015Z,5.11
2022-12-12T07:11:24.853Z,5.21
2022-12-12T07:13:54.223Z,5.19
2022-12-12T07:16:22.254Z,5.25
2022-12-12T07:18:52.414Z,5.31
2022-12-12T07:21:20.725Z,5.48
2022-12-12T07:23:48.490Z,5.52
2022-12-12T07:26:18.781Z,5.51
2022-12-12T07:28:46.575Z,5.71
2022-12-12T07:31:19.968Z,5.72
2022-12-12T07:33:47.961Z,5.77
2022-12-12T07:36:16.719Z,5.85
2022-12-12T07:38:44.862Z,5.93
2022-12-12T07:41:15.454Z,6.07
2022-12-12T07:43:45.046Z,6.15
2022-12-12T07:46:20.677Z,6.28
2022-12-12T07:48:49.841Z,6.28
2022-12-12T07:51:17.868Z,6.39
2022-12-12T07:53:45.840Z,6.45
2022-12-12T07:56:15.822Z,6.40
2022-12-12T07:58:43.853Z,6.59
2022-12-12T08:01:18.416Z,6.51
2022-12-12T08:03:46.992Z,6.37
2022-12-12T08:06:16.556Z,6.45
2022-12-12T08:08:44.816Z,6.51
2022-12-12T08:11:14.832Z,6.55
2022-12-12T08:13:43.104Z,6.61
2022-12-12T08:16:27.309Z,6.68
2022-12-12T08:18:58.957Z,6.70
2022-12-12T08:21:27.479Z,6.45
2022-12-12T08:23:59.634Z,6.79
2022-12-12T08:26:29.693Z,6.79
2022-12-12T08:28:57.774Z,6.85
2022-12-12T08:31:25.870Z,7.08
2022-12-12T08:33:53.584Z,7.23
2022-12-12T08:36:26.427Z,7.13
2022-12-12T08:38:53.833Z,7.19
2022-12-12T08:41:22.386Z,7.15
2022-12-12T08:43:50.400Z,7.29
2022-12-12T08:46:18.829Z,7.35
2022-12-12T08:48:48.571Z,7.40
2022-12-12T08:51:18.055Z,7.41
2022-12-12T08:53:47.097Z,7.07
2022-12-12T08:56:16.449Z,7.29
2022-12-12T08:58:44.571Z,7.18
2022-12-12T09:01:19.057Z,7.26
2022-12-12T09:03:48.186Z,7.35
2022-12-12T09:06:17.147Z,7.28
2022-12-12T09:08:45.951Z,7.20
2022-12-12T09:11:16.086Z,7.15
2022-12-12T09:13:44.159Z,7.01
2022-12-12T09:16:12.449Z,6.95
2022-12-12T09:18:47.795Z,7.09
2022-12-12T09:21:16.264Z,7.09
2022-12-12T09:23:43.501Z,7.11
2022-12-12T09:26:11.111Z,7.06
2022-12-12T09:28:39.499Z,7.08
2022-12-12T09:31:08.909Z,7.19
2022-12-12T09:33:36.946Z,7.34
2022-12-12T09:36:10.075Z,7.36
2022-12-12T09:38:39.742Z,7.57
2022-12-12T09:41:09.543Z,7.61
2022-12-12T09:43:56.510Z,7.68
2022-12-12T09:47:02.383Z,8.08
2022-12-12T09:49:56.069Z,8.21
2022-12-12T09:52:32.833Z,8.25
2022-12-12T09:55:21.286Z,8.29
2022-12-12T09:58:03.343Z,8.16
2022-12-12T10:00:36.629Z,8.14
2022-12-12T10:03:16.253Z,8.33
2022-12-12T10:06:01.890Z,8.25
2022-12-12T10:08:49.635Z,7.96
2022-12-12T10:11:46.071Z,8.14
2022-12-12T10:14:16.885Z,7.99
2022-12-12T10:16:55.686Z,8.06
2022-12-12T10:19:28.358Z,8.05
2022-12-12T10:22:02.586Z,7.98
2022-12-12T10:24:49.728Z,7.94
2022-12-12T10:27:18.535Z,8.07
2022-12-12T10:29:48.861Z,8.04
2022-12-12T10:32:47.054Z,7.99
2022-12-12T10:35:29.297Z,8.04
2022-12-12T10:38:24.271Z,8.20
2022-12-12T10:41:04.509Z,7.65
2022-12-12T10:43:41.333Z,8.24
2022-12-12T10:46:17.723Z,8.31
2022-12-12T10:48:47.753Z,8.33
2022-12-12T10:51:18.098Z,8.29
2022-12-12T10:53:48.393Z,8.32
2022-12-12T10:56:26.160Z,8.15
2022-12-12T10:59:02.453Z,8.10
2022-12-12T11:04:28.414Z,8.50
2022-12-12T11:06:56.486Z,8.23
2022-12-12T11:09:32.677Z,8.42
2022-12-12T11:12:12.759Z,8.32
2022-12-12T11:14:50.989Z,8.59
2022-12-12T11:17:33.204Z,8.66
2022-12-12T11:20:03.023Z,8.69
2022-12-12T11:22:33.321Z,8.59
2022-12-12T11:25:01.481Z,8.56
2022-12-12T11:27:36.410Z,8.49
2022-12-12T11:30:23.344Z,8.53
2022-12-12T11:32:58.803Z,8.37
2022-12-12T11:35:33.512Z,8.43
2022-12-12T11:38:06.221Z,8.55
2022-12-12T11:40:36.312Z,8.48
2022-12-12T11:43:30.405Z,8.47
2022-12-12T11:46:08.564Z,8.45
2022-12-12T11:48:57.669Z,8.29
2022-12-12T11:51:33.597Z,8.26
2022-12-12T11:54:03.054Z,8.36
2022-12-12T11:57:06.081Z,8.41
2022-12-12T11:59:49.352Z,8.45
2022-12-12T12:02:49.594Z,8.43
2022-12-12T12:05:27.164Z,8.54
2022-12-12T12:08:32.172Z,8.59
2022-12-12T12:11:10.821Z,8.53
2022-12-12T12:14:07.773Z,8.69
2022-12-12T12:17:09.008Z,8.62
2022-12-12T12:19:46.349Z,8.81
2022-12-12T12:22:39.209Z,8.91
2022-12-12T12:25:20.263Z,8.88
2022-12-12T12:28:08.705Z,9.20
2022-12-12T12:30:56.829Z,9.80
2022-12-12T12:33:45.144Z,10.11
2022-12-12T12:36:21.292Z,10.52
2022-12-12T12:38:57.232Z,10.53
2022-12-12T12:41:55.256Z,10.64
2022-12-12T12:44:44.127Z,11.09
2022-12-12T12:47:35.635Z,11.16
2022-12-12T12:50:23.868Z,11.72
2022-12-12T12:53:16.640Z,13.06
2022-12-12T12:55:51.153Z,12.94
2022-12-12T12:58:27.019Z,11.87
2022-12-12T13:01:05.548Z,11.33
2022-12-12T13:03:45.166Z,10.97
2022-12-12T13:06:23.529Z,10.59
2022-12-12T13:09:00.153Z,10.03
2022-12-12T13:11:42.291Z,9.75
2022-12-12T13:14:51.052Z,9.53
2022-12-12T13:17:28.214Z,9.29
2022-12-12T13:19:58.031Z,9.06
2022-12-12T13:22:46.254Z,8.88
2022-12-12T13:25:44.587Z,8.71
2022-12-12T13:28:19.758Z,8.41
2022-12-12T13:31:28.802Z,8.27
2022-12-12T13:34:09.042Z,7.92
2022-12-12T13:36:41.880Z,8.13
2022-12-12T13:39:22.254Z,7.99
2022-12-12T13:42:07.459Z,7.97
2022-12-12T13:44:50.477Z,7.96
2022-12-12T13:47:18.136Z,7.85
2022-12-12T13:50:09.650Z,7.78
2022-12-12T13:52:42.901Z,7.68
2022-12-12T13:55:13.148Z,7.63
2022-12-12T13:57:59.986Z,7.61
2022-12-12T14:00:34.108Z,7.52
2022-12-12T14:03:07.462Z,7.46
2022-12-12T14:05:44.541Z,7.52
2022-12-12T14:08:12.730Z,7.51
2022-12-12T14:10:51.794Z,7.32
2022-12-12T14:13:24.468Z,7.40
2022-12-12T14:15:57.900Z,7.33
2022-12-12T14:18:36.898Z,7.04
2022-12-12T14:21:10.251Z,7.22
2022-12-12T14:23:42.261Z,7.19
2022-12-12T14:26:28.729Z,7.10
2022-12-12T14:29:17.783Z,7.04
2022-12-12T14:31:58.899Z,6.93
2022-12-12T14:34:35.683Z,6.81
2022-12-12T14:37:20.105Z,6.74
2022-12-12T14:39:49.945Z,6.78
2022-12-12T14:43:19.998Z,6.68
2022-12-12T14:45:49.434Z,6.40
2022-12-12T14:48:34.495Z,6.53
2022-12-12T14:51:16.406Z,6.58
2022-12-12T14:53:53.282Z,6.62
2022-12-12T14:56:22.623Z,6.59
2022-12-12T14:58:59.581Z,6.63
2022-12-12T15:01:42.714Z,6.58
2022-12-12T15:04:14.283Z,6.65
2022-12-12T15:06:46.359Z,6.74
2022-12-12T15:09:16.597Z,6.77
2022-12-12T15:11:44.422Z,6.75
2022-12-12T15:14:23.839Z,6.74
2022-12-12T15:17:02.728Z,6.63
2022-12-12T15:19:39.784Z,6.64
2022-12-12T15:22:12.875Z,6.57
2022-12-12T15:24:40.405Z,6.57
2022-12-12T15:27:09.170Z,6.58
2022-12-12T15:29:38.072Z,6.57
2022-12-12T15:32:16.217Z,6.57
2022-12-12T15:34:46.471Z,6.58
2022-12-12T15:37:33.238Z,6.63
2022-12-12T15:40:12.321Z,6.65
2022-12-12T15:42:42.775Z,6.46
2022-12-12T15:45:22.022Z,6.76
2022-12-12T15:47:52.242Z,6.80
2022-12-12T15:50:47.252Z,6.85
2022-12-12T15:53:37.020Z,6.88
2022-12-12T15:56:22.899Z,6.84
2022-12-12T15:59:03.416Z,6.90
2022-12-12T16:01:31.220Z,6.84
2022-12-12T16:04:09.389Z,6.87
2022-12-12T16:06:45.865Z,6.81
2022-12-12T16:09:26.137Z,6.83
2022-12-12T16:11:59.887Z,6.83
2022-12-12T16:14:42.045Z,6.83
2022-12-12T16:17:20.497Z,6.85
2022-12-12T16:19:58.505Z,6.89
2022-12-12T16:22:33.504Z,6.89
2022-12-12T16:25:30.449Z,6.85
2022-12-12T16:28:21.622Z,6.86
2022-12-12T16:30:56.178Z,6.91
2022-12-12T16:33:28.743Z,6.90
2022-12-12T16:35:58.406Z,6.93
2022-12-12T16:38:26.355Z,6.98
2022-12-12T16:40:55.813Z,6.88
2022-12-12T16:43:24.425Z,6.88
2022-12-12T16:45:54.028Z,6.90
2022-12-12T16:48:24.131Z,6.96
2022-12-12T16:50:55.402Z,6.84
2022-12-12T16:53:22.370Z,6.80
2022-12-12T16:55:59.075Z,6.71
2022-12-12T16:58:33.665Z,6.75
2022-12-12T17:01:06.958Z,6.78
2022-12-12T17:03:38.924Z,6.74
2022-12-12T17:06:06.226Z,6.68
2022-12-12T17:08:33.202Z,6.68
2022-12-12T17:11:09.448Z,6.69
2022-12-12T17:13:41.361Z,6.70
2022-12-12T17:16:08.821Z,6.72
2022-12-12T17:18:36.090Z,6.69
2022-12-12T17:21:03.136Z,6.58
2022-12-12T17:23:31.146Z,6.62
2022-12-12T17:26:03.890Z,6.54
2022-12-12T17:28:34.356Z,6.49
2022-12-12T17:31:08.684Z,6.45
2022-12-12T17:33:45.923Z,6.55
2022-12-12T17:36:17.235Z,6.52
2022-12-12T17:38:45.101Z,6.54
2022-12-12T17:41:12.837Z,6.38
2022-12-12T17:43:42.496Z,6.47
2022-12-12T17:46:14.763Z,6.54
2022-12-12T17:48:44.531Z,6.57
2022-12-12T17:51:16.337Z,6.53
2022-12-12T17:53:44.654Z,6.51
2022-12-12T17:56:16.325Z,6.49
2022-12-12T17:58:46.131Z,6.51
2022-12-12T18:01:33.579Z,6.52
2022-12-12T18:04:03.110Z,6.42
2022-12-12T18:06:35.828Z,6.35
2022-12-12T18:09:04.769Z,6.34
2022-12-12T18:11:46.393Z,6.28
2022-12-12T18:14:15.786Z,6.27
2022-12-12T18:16:44.798Z,5.94
2022-12-12T18:19:12.117Z,5.86
2022-12-12T18:24:30.576Z,6.05
2022-12-12T18:27:07.045Z,6.01
2022-12-12T18:29:34.165Z,6.00
2022-12-12T18:32:01.384Z,5.96
2022-12-12T18:34:28.726Z,5.84
2022-12-12T18:36:56.119Z,5.87
2022-12-12T18:39:23.630Z,5.86
2022-12-12T18:41:52.352Z,5.92
2022-12-12T18:44:20.353Z,5.80
2022-12-12T18:46:52.169Z,5.94
2022-12-12T18:49:22.268Z,5.83
2022-12-12T18:51:51.616Z,5.82
2022-12-12T18:54:19.985Z,5.68
2022-12-12T18:56:47.851Z,5.66
2022-12-12T18:59:16.272Z,5.64
2022-12-12T19:01:43.913Z,5.52
2022-12-12T19:04:15.127Z,5.66
2022-12-12T19:06:44.933Z,5.64
2022-12-12T19:09:48.390Z,5.63
2022-12-12T19:12:16.662Z,5.54
2022-12-12T19:15:15.183Z,5.55
2022-12-12T19:17:30.703Z,5.47
2022-12-12T19:19:57.911Z,5.45
2022-12-12T19:22:44.283Z,5.47
2022-12-12T19:25:12.691Z,5.39
2022-12-12T19:27:39.822Z,5.23
2022-12-12T19:30:10.796Z,5.17
2022-12-12T19:32:37.934Z,5.13
2022-12-12T19:35:05.439Z,5.15
2022-12-12T19:37:32.722Z,5.07
2022-12-12T19:39:59.858Z,5.06
2022-12-12T19:42:31.647Z,4.95
2022-12-12T19:44:58.759Z,4.89
2022-12-12T19:47:27.707Z,4.88
2022-12-12T19:49:55.118Z,4.85
2022-12-12T19:52:22.040Z,4.86
2022-12-12T19:54:49.103Z,4.85
2022-12-12T19:57:16.232Z,4.81
2022-12-12T20:00:02.382Z,4.73
2022-12-12T20:02:37.521Z,4.69
2022-12-12T20:05:04.818Z,4.68
2022-12-12T20:07:31.898Z,4.64
2022-12-12T20:09:58.950Z,4.56
2022-12-12T20:12:26.169Z,4.49
2022-12-12T20:14:53.135Z,4.38
2022-12-12T20:17:20.365Z,4.52
2022-12-12T20:19:49.589Z,4.50
2022-12-12T20:22:16.754Z,4.53
2022-12-12T20:24:45.213Z,4.52
2022-12-12T20:27:15.977Z,4.46
2022-12-12T20:29:43.084Z,4.44
2022-12-12T20:32:18.510Z,4.47
2022-12-12T20:34:50.143Z,4.43
2022-12-12T20:37:20.180Z,4.31
2022-12-12T20:39:48.225Z,4.47
2022-12-12T20:42:18.018Z,4.41
2022-12-12T20:44:45.475Z,4.25
2022-12-12T20:47:17.207Z,4.41
2022-12-12T20:49:45.152Z,4.26
2022-12-12T20:52:12.838Z,4.37
2022-12-12T20:54:46.405Z,4.26
2022-12-12T20:57:13.397Z,4.19
2022-12-12T20:59:40.792Z,4.26
2022-12-12T21:02:20.200Z,4.17
2022-12-12T21:04:47.554Z,4.04
2022-12-12T21:07:17.346Z,4.02
2022-12-12T21:09:44.619Z,3.87
2022-12-12T21:12:11.853Z,3.77
2022-12-12T21:14:39.080Z,3.84
2022-12-12T21:17:06.179Z,3.79
2022-12-12T21:19:33.249Z,3.83
2022-12-12T21:22:00.452Z,3.81
2022-12-12T21:24:27.365Z,3.83
2022-12-12T21:26:54.584Z,3.74
2022-12-12T21:29:49.521Z,3.70
2022-12-12T21:32:16.413Z,3.63
2022-12-12T21:34:44.325Z,3.56
2022-12-12T21:37:11.406Z,3.68
2022-12-12T21:39:39.060Z,3.64
2022-12-12T21:42:06.251Z,3.72
2022-12-12T21:44:33.317Z,3.58
2022-12-12T21:47:00.932Z,3.58
2022-12-12T21:49:28.321Z,3.53
2022-12-12T21:52:00.730Z,3.57
2022-12-12T21:54:29.378Z,3.53
2022-12-12T21:56:58.193Z,3.48
2022-12-12T21:59:25.954Z,3.36
2022-12-12T22:02:00.663Z,3.38
2022-12-12T22:04:28.344Z,3.39
2022-12-12T22:06:57.567Z,3.25
2022-12-12T22:09:24.704Z,3.34
2022-12-12T22:11:52.486Z,3.28
2022-12-12T22:14:30.677Z,3.27
2022-12-12T22:17:00.084Z,3.27
2022-12-12T22:19:27.231Z,3.17
2022-12-12T22:21:54.466Z,3.22
2022-12-12T22:24:22.384Z,3.23
2022-12-12T22:26:50.445Z,3.19
2022-12-12T22:29:20.576Z,3.26
2022-12-12T22:31:50.320Z,3.11
2022-12-12T22:34:26.717Z,3.24
2022-12-12T22:36:57.783Z,3.22
2022-12-12T22:39:28.173Z,3.23
2022-12-12T22:41:56.239Z,3.26
2022-12-12T22:44:26.485Z,3.33
2022-12-12T22:46:55.000Z,3.29
2022-12-12T22:49:27.464Z,3.12
2022-12-12T22:51:58.645Z,3.17
2022-12-12T22:54:26.643Z,3.00
2022-12-12T22:56:55.996Z,3.06
2022-12-12T22:59:24.611Z,3.01
2022-12-12T23:01:51.869Z,2.90
2022-12-12T23:04:18.900Z,2.93
2022-12-12T23:06:46.679Z,2.90
2022-12-12T23:09:17.127Z,2.89
2022-12-12T23:11:45.400Z,2.88
2022-12-12T23:14:16.251Z,2.89
2022-12-12T23:16:44.768Z,2.79
2022-12-12T23:19:15.371Z,2.73
2022-12-12T23:21:42.948Z,2.75
2022-12-12T23:24:10.317Z,2.62
2022-12-12T23:26:38.805Z,2.70
2022-12-12T23:29:09.405Z,2.60
2022-12-12T23:31:38.816Z,2.46
2022-12-12T23:34:09.415Z,2.54
2022-12-12T23:36:36.506Z,2.52
2022-12-12T23:39:08.021Z,2.56
2022-12-12T23:41:36.749Z,2.72
2022-12-12T23:44:05.687Z,2.58
2022-12-12T23:46:33.873Z,2.58
2022-12-12T23:49:06.297Z,2.56
2022-12-12T23:51:34.948Z,2.53
2022-12-12T23:54:04.627Z,2.50
2022-12-12T23:56:32.383Z,2.43
2022-12-12T23:58:59.950Z,2.41
